createdAt,value
2022-09-10T00:01:19.203Z,5.00
2022-09-10T00:03:48.686Z,3.60
2022-09-10T00:06:18.544Z,3.80
2022-09-10T00:08:47.491Z,1.93
2022-09-10T00:11:15.908Z,3.57
2022-09-10T00:13:44.107Z,2.10
2022-09-10T00:16:15.160Z,3.43
2022-09-10T00:18:44.558Z,4.53
2022-09-10T00:21:14.559Z,3.03
2022-09-10T00:23:45.468Z,2.77
2022-09-10T00:26:16.732Z,1.33
2022-09-10T00:28:44.792Z,1.73
2022-09-10T00:31:13.237Z,5.03
2022-09-10T00:33:41.709Z,1.27
2022-09-10T00:36:17.368Z,5.07
2022-09-10T00:38:45.284Z,2.10
2022-09-10T00:41:14.226Z,2.03
2022-09-10T00:43:54.366Z,2.93
2022-09-10T00:46:28.449Z,1.67
2022-09-10T00:48:59.029Z,1.80
2022-09-10T00:51:31.070Z,1.30
2022-09-10T00:53:59.972Z,2.83
2022-09-10T00:56:28.470Z,1.60
2022-09-10T00:58:57.109Z,1.00
2022-09-10T01:01:25.025Z,0.70
2022-09-10T01:03:55.281Z,1.47
2022-09-10T01:06:23.941Z,2.27
2022-09-10T01:08:53.438Z,1.53
2022-09-10T01:11:44.951Z,1.50
2022-09-10T01:14:41.750Z,1.90
2022-09-10T01:17:18.257Z,1.73
2022-09-10T01:20:10.938Z,2.60
2022-09-10T01:22:59.601Z,3.10
2022-09-10T01:25:41.826Z,2.10
2022-09-10T01:28:18.707Z,3.83
2022-09-10T01:30:51.521Z,3.10
2022-09-10T01:33:26.045Z,1.80
2022-09-10T01:35:58.014Z,3.03
2022-09-10T01:38:31.532Z,3.50
2022-09-10T01:41:00.084Z,2.40
2022-09-10T01:43:29.931Z,2.33
2022-09-10T01:46:13.237Z,3.17
2022-09-10T01:49:10.333Z,3.30
2022-09-10T01:51:49.919Z,3.33
2022-09-10T01:54:28.527Z,2.73
2022-09-10T01:57:06.437Z,1.23
2022-09-10T01:59:43.910Z,1.60
2022-09-10T02:02:17.915Z,2.23
2022-09-10T02:04:47.438Z,4.17
2022-09-10T02:07:17.360Z,2.47
2022-09-10T02:09:45.447Z,3.23
2022-09-10T02:12:21.579Z,1.10
2022-09-10T02:14:51.441Z,2.40
2022-09-10T02:17:20.130Z,4.47
2022-09-10T02:19:51.470Z,3.93
2022-09-10T02:22:23.196Z,1.83
2022-09-10T02:24:51.459Z,2.17
2022-09-10T02:27:19.891Z,2.23
2022-09-10T02:29:49.373Z,4.87
2022-09-10T02:32:18.582Z,2.30
2022-09-10T02:34:46.401Z,3.63
2022-09-10T02:37:14.227Z,2.47
2022-09-10T02:39:42.377Z,3.63
2022-09-10T02:42:10.262Z,3.33
2022-09-10T02:44:38.077Z,5.03
2022-09-10T02:47:06.454Z,4.43
2022-09-10T02:49:35.651Z,2.87
2022-09-10T02:52:04.540Z,2.93
2022-09-10T02:54:32.518Z,4.20
2022-09-10T02:57:00.916Z,5.57
2022-09-10T02:59:28.968Z,2.13
2022-09-10T03:01:56.980Z,4.90
2022-09-10T03:04:24.809Z,2.77
2022-09-10T03:06:54.867Z,4.53
2022-09-10T03:09:23.083Z,3.23
2022-09-10T03:11:51.739Z,2.77
2022-09-10T03:14:22.165Z,4.43
2022-09-10T03:16:50.628Z,2.40
2022-09-10T03:19:18.502Z,2.53
2022-09-10T03:21:47.398Z,4.60
2022-09-10T03:24:17.332Z,1.80
2022-09-10T03:26:45.137Z,3.00
2022-09-10T03:29:13.987Z,2.03
2022-09-10T03:31:42.591Z,5.53
2022-09-10T03:34:12.468Z,1.17
2022-09-10T03:36:40.281Z,2.07
2022-09-10T03:39:08.130Z,4.20
2022-09-10T03:41:37.371Z,2.17
2022-09-10T03:44:05.184Z,4.73
2022-09-10T03:46:33.447Z,3.90
2022-09-10T03:49:02.254Z,2.83
2022-09-10T03:51:31.036Z,2.77
2022-09-10T03:53:59.837Z,5.30
2022-09-10T03:56:28.286Z,2.50
2022-09-10T03:58:57.836Z,2.37
2022-09-10T04:01:25.751Z,5.50
2022-09-10T04:03:56.405Z,6.80
2022-09-10T04:06:24.358Z,3.20
2022-09-10T04:08:53.020Z,3.80
2022-09-10T04:11:20.909Z,3.50
2022-09-10T04:13:48.994Z,4.10
2022-09-10T04:16:18.761Z,6.03
2022-09-10T04:18:46.822Z,3.40
2022-09-10T04:21:14.750Z,4.07
2022-09-10T04:23:42.881Z,4.97
2022-09-10T04:26:14.744Z,3.70
2022-09-10T04:28:42.918Z,4.67
2022-09-10T04:31:11.298Z,3.43
2022-09-10T04:33:40.629Z,4.03
2022-09-10T04:36:08.907Z,5.50
2022-09-10T04:38:40.452Z,3.27
2022-09-10T04:41:09.340Z,3.87
2022-09-10T04:43:38.109Z,3.00
2022-09-10T04:46:06.091Z,4.33
2022-09-10T04:48:34.265Z,5.17
2022-09-10T04:51:16.138Z,3.03
2022-09-10T04:53:45.361Z,3.43
2022-09-10T04:56:13.358Z,3.97
2022-09-10T04:58:41.905Z,2.80
2022-09-10T05:01:10.174Z,2.87
2022-09-10T05:03:38.172Z,2.30
2022-09-10T05:06:07.749Z,2.37
2022-09-10T05:08:36.558Z,3.47
2022-09-10T05:11:05.208Z,4.93
2022-09-10T05:13:33.026Z,3.63
2022-09-10T05:16:01.546Z,7.13
2022-09-10T05:18:29.383Z,3.23
2022-09-10T05:20:57.273Z,5.77
2022-09-10T05:23:27.173Z,3.40
2022-09-10T05:25:55.017Z,3.80
2022-09-10T05:28:22.903Z,3.43
2022-09-10T05:30:51.909Z,2.70
2022-09-10T05:33:19.970Z,2.77
2022-09-10T05:35:51.487Z,2.50
2022-09-10T05:38:19.524Z,4.20
2022-09-10T05:40:48.913Z,1.37
2022-09-10T05:43:16.766Z,2.70
2022-09-10T05:45:44.656Z,4.57
2022-09-10T05:48:13.199Z,3.53
2022-09-10T05:50:41.040Z,3.40
2022-09-10T05:53:09.966Z,2.20
2022-09-10T05:55:37.822Z,4.47
2022-09-10T05:58:07.067Z,3.50
2022-09-10T06:00:36.316Z,4.20
2022-09-10T06:03:05.332Z,3.47
2022-09-10T06:05:33.423Z,4.07
2022-09-10T06:08:04.341Z,5.07
2022-09-10T06:10:35.839Z,2.47
2022-09-10T06:13:03.679Z,5.07
2022-09-10T06:15:33.044Z,3.67
2022-09-10T06:18:01.775Z,3.20
2022-09-10T06:20:29.639Z,3.50
2022-09-10T06:22:57.455Z,3.97
2022-09-10T06:25:25.366Z,3.17
2022-09-10T06:27:53.177Z,4.20
2022-09-10T06:30:21.619Z,3.73
2022-09-10T06:32:50.840Z,1.70
2022-09-10T06:35:18.866Z,1.87
2022-09-10T06:37:47.293Z,4.73
2022-09-10T06:40:15.501Z,2.70
2022-09-10T06:42:43.377Z,5.07
2022-09-10T06:45:11.619Z,3.67
2022-09-10T06:48:25.443Z,3.93
2022-09-10T06:50:28.589Z,2.00
2022-09-10T06:52:57.059Z,2.47
2022-09-10T06:55:24.874Z,2.17
2022-09-10T06:57:52.713Z,2.77
2022-09-10T07:00:21.060Z,2.37
2022-09-10T07:02:50.475Z,3.37
2022-09-10T07:05:18.319Z,4.60
2022-09-10T07:07:47.807Z,3.17
2022-09-10T07:10:15.795Z,2.80
2022-09-10T07:12:44.674Z,3.17
2022-09-10T07:15:12.528Z,2.33
2022-09-10T07:17:40.365Z,4.87
2022-09-10T07:20:09.070Z,3.27
2022-09-10T07:22:37.722Z,3.67
2022-09-10T07:25:10.656Z,1.90
2022-09-10T07:27:38.442Z,1.73
2022-09-10T07:30:07.420Z,3.87
2022-09-10T07:32:35.626Z,5.90
2022-09-10T07:35:03.430Z,1.87
2022-09-10T07:37:31.352Z,5.27
2022-09-10T07:39:59.756Z,2.90
2022-09-10T07:42:29.400Z,2.73
2022-09-10T07:44:57.359Z,3.40
2022-09-10T07:47:25.224Z,3.43
2022-09-10T07:49:53.244Z,2.90
2022-09-10T07:52:21.082Z,4.03
2022-09-10T07:54:48.924Z,4.40
2022-09-10T07:57:16.824Z,1.83
2022-09-10T07:59:46.026Z,3.07
2022-09-10T08:02:15.978Z,2.30
2022-09-10T08:04:43.926Z,3.33
2022-09-10T08:07:11.837Z,3.20
2022-09-10T08:09:39.784Z,5.27
2022-09-10T08:12:07.983Z,3.23
2022-09-10T08:14:37.988Z,3.07
2022-09-10T08:17:07.698Z,4.17
2022-09-10T08:19:36.594Z,5.37
2022-09-10T08:22:04.457Z,3.50
2022-09-10T08:24:32.304Z,3.93
2022-09-10T08:27:00.184Z,2.10
2022-09-10T08:29:28.598Z,5.23
2022-09-10T08:31:56.467Z,5.20
2022-09-10T08:34:26.210Z,5.03
2022-09-10T08:36:55.318Z,2.27
2022-09-10T08:39:24.044Z,4.87
2022-09-10T08:41:56.407Z,4.00
2022-09-10T08:44:32.993Z,3.07
2022-09-10T08:47:06.167Z,2.77
2022-09-10T08:49:42.577Z,5.03
2022-09-10T08:52:17.029Z,4.90
2022-09-10T08:54:52.164Z,2.57
2022-09-10T08:57:25.530Z,3.40
2022-09-10T08:59:56.485Z,5.13
2022-09-10T09:02:48.451Z,2.90
2022-09-10T09:05:20.058Z,3.07
2022-09-10T09:07:49.356Z,3.10
2022-09-10T09:10:31.511Z,5.93
2022-09-10T09:13:29.788Z,4.27
2022-09-10T09:16:09.088Z,3.90
2022-09-10T09:18:46.640Z,3.73
2022-09-10T09:21:18.174Z,4.60
2022-09-10T09:24:12.351Z,3.23
2022-09-10T09:26:46.010Z,4.07
2022-09-10T09:29:18.932Z,6.00
2022-09-10T09:31:50.945Z,4.33
2022-09-10T09:34:23.348Z,5.40
2022-09-10T09:36:55.886Z,3.37
2022-09-10T09:39:29.304Z,5.70
2022-09-10T09:42:05.688Z,4.23
2022-09-10T09:44:40.375Z,4.67
2022-09-10T09:47:09.654Z,4.43
2022-09-10T09:49:37.516Z,5.70
2022-09-10T09:52:18.372Z,5.47
2022-09-10T09:55:13.735Z,4.57
2022-09-10T09:57:38.664Z,6.57
2022-09-10T10:00:36.511Z,5.17
2022-09-10T10:03:13.335Z,4.37
2022-09-10T10:05:42.325Z,6.60
2022-09-10T10:08:30.056Z,4.83
2022-09-10T10:10:58.439Z,4.87
2022-09-10T10:13:26.337Z,6.43
2022-09-10T10:15:55.593Z,6.30
2022-09-10T10:18:32.580Z,5.00
2022-09-10T10:21:18.136Z,5.77
2022-09-10T10:23:46.031Z,6.07
2022-09-10T10:26:29.052Z,5.33
2022-09-10T10:29:00.889Z,5.33
2022-09-10T10:31:38.649Z,6.07
2022-09-10T10:34:32.395Z,6.03
2022-09-10T10:37:08.356Z,5.83
2022-09-10T10:39:51.452Z,7.73
2022-09-10T10:42:27.305Z,7.63
2022-09-10T10:45:12.442Z,5.30
2022-09-10T10:47:51.299Z,5.73
2022-09-10T10:50:31.075Z,8.47
2022-09-10T10:53:23.864Z,6.27
2022-09-10T10:56:02.999Z,9.10
2022-09-10T10:58:54.316Z,5.20
2022-09-10T11:01:25.418Z,4.87
2022-09-10T11:04:01.525Z,6.47
2022-09-10T11:06:38.259Z,5.53
2022-09-10T11:09:09.273Z,6.40
2022-09-10T11:11:48.432Z,10.00
2022-09-10T11:14:23.263Z,4.80
2022-09-10T11:16:58.532Z,8.30
2022-09-10T11:19:37.178Z,8.57
2022-09-10T11:22:12.318Z,5.60
2022-09-10T11:24:46.607Z,11.03
2022-09-10T11:27:17.283Z,8.27
2022-09-10T11:29:52.979Z,6.47
2022-09-10T11:32:28.455Z,7.37
2022-09-10T11:35:04.686Z,5.37
2022-09-10T11:37:52.949Z,5.20
2022-09-10T11:40:28.306Z,7.07
2022-09-10T11:43:01.748Z,7.07
2022-09-10T11:45:40.015Z,8.67
2022-09-10T11:48:17.334Z,19.10
2022-09-10T11:50:53.703Z,11.40
2022-09-10T11:53:24.713Z,7.57
2022-09-10T11:56:28.931Z,7.87
2022-09-10T11:59:14.154Z,7.10
2022-09-10T12:02:02.476Z,8.93
2022-09-10T12:04:51.055Z,8.13
2022-09-10T12:07:33.714Z,8.13
2022-09-10T12:10:14.768Z,8.67
2022-09-10T12:12:44.923Z,7.13
2022-09-10T12:15:19.798Z,7.07
2022-09-10T12:17:51.898Z,27.43
2022-09-10T12:20:26.961Z,99.43
2022-09-10T12:22:57.337Z,8.60
2022-09-10T12:25:33.586Z,8.40
2022-09-10T12:28:05.142Z,6.43
2022-09-10T12:31:02.603Z,6.27
2022-09-10T12:33:59.314Z,7.90
2022-09-10T12:37:17.035Z,8.27
2022-09-10T12:39:46.637Z,6.43
2022-09-10T12:42:32.606Z,7.83
2022-09-10T12:45:00.878Z,6.20
2022-09-10T12:47:55.931Z,7.23
2022-09-10T12:50:45.906Z,7.83
2022-09-10T12:53:38.096Z,7.70
2022-09-10T12:56:38.023Z,6.60
2022-09-10T12:59:36.086Z,9.27
2022-09-10T13:02:05.894Z,7.30
2022-09-10T13:04:36.507Z,6.27
2022-09-10T13:07:20.923Z,7.60
2022-09-10T13:09:59.630Z,6.97
2022-09-10T13:12:31.899Z,8.87
2022-09-10T13:15:02.498Z,6.67
2022-09-10T13:18:01.240Z,7.83
2022-09-10T13:20:34.539Z,6.00
2022-09-10T13:23:03.915Z,40.13
2022-09-10T13:25:41.400Z,22.37
2022-09-10T13:28:42.838Z,8.70
2022-09-10T13:31:19.226Z,6.33
2022-09-10T13:34:15.807Z,8.87
2022-09-10T13:36:55.916Z,6.60
2022-09-10T13:39:48.808Z,7.10
2022-09-10T13:42:42.438Z,7.30
2022-09-10T13:45:22.752Z,6.23
2022-09-10T13:47:58.035Z,5.77
2022-09-10T13:50:28.723Z,6.37
2022-09-10T13:53:00.395Z,9.60
2022-09-10T13:55:30.517Z,7.27
2022-09-10T13:58:01.992Z,8.80
2022-09-10T14:00:35.537Z,9.67
2022-09-10T14:03:15.983Z,9.93
2022-09-10T14:05:48.667Z,7.90
2022-09-10T14:08:21.545Z,8.30
2022-09-10T14:10:53.310Z,6.37
2022-09-10T14:13:28.593Z,7.20
2022-09-10T14:15:59.399Z,7.17
2022-09-10T14:18:36.939Z,6.57
2022-09-10T14:21:05.599Z,7.67
2022-09-10T14:23:33.616Z,6.97
2022-09-10T14:26:17.251Z,7.03
2022-09-10T14:28:53.247Z,6.77
2022-09-10T14:31:24.355Z,8.17
2022-09-10T14:33:54.229Z,11.60
2022-09-10T14:36:23.836Z,6.73
2022-09-10T14:39:02.599Z,9.83
2022-09-10T14:41:33.076Z,7.93
2022-09-10T14:44:30.998Z,8.83
2022-09-10T14:47:01.746Z,6.40
2022-09-10T14:49:33.589Z,8.47
2022-09-10T14:52:03.401Z,8.13
2022-09-10T14:54:33.481Z,8.60
2022-09-10T14:57:04.734Z,7.43
2022-09-10T14:59:34.534Z,6.80
2022-09-10T15:02:03.533Z,6.47
2022-09-10T15:04:32.984Z,6.40
2022-09-10T15:07:02.600Z,7.30
2022-09-10T15:09:31.383Z,6.63
2022-09-10T15:12:03.257Z,5.90
2022-09-10T15:14:32.732Z,6.47
2022-09-10T15:17:00.919Z,7.97
2022-09-10T15:19:28.861Z,6.00
2022-09-10T15:21:58.296Z,7.70
2022-09-10T15:24:28.235Z,7.53
2022-09-10T15:26:57.316Z,5.47
2022-09-10T15:29:26.071Z,5.27
2022-09-10T15:31:54.433Z,7.73
2022-09-10T15:34:22.246Z,9.27
2022-09-10T15:36:50.084Z,5.73
2022-09-10T15:39:19.305Z,6.77
2022-09-10T15:41:47.197Z,8.57
2022-09-10T15:44:15.106Z,5.03
2022-09-10T15:46:45.256Z,4.47
2022-09-10T15:49:13.348Z,6.53
2022-09-10T15:51:42.136Z,3.70
2022-09-10T15:54:11.184Z,5.67
2022-09-10T15:56:40.874Z,3.60
2022-09-10T15:59:10.252Z,3.50
2022-09-10T16:01:39.289Z,4.90
2022-09-10T16:04:07.494Z,3.50
2022-09-10T16:06:40.659Z,4.67
2022-09-10T16:09:10.105Z,5.07
2022-09-10T16:11:41.215Z,3.47
2022-09-10T16:14:12.353Z,3.30
2022-09-10T16:16:40.815Z,2.97
2022-09-10T16:19:09.238Z,3.80
2022-09-10T16:21:39.161Z,3.93
2022-09-10T16:24:08.013Z,3.67
2022-09-10T16:26:37.810Z,3.73
2022-09-10T16:29:08.735Z,4.47
2022-09-10T16:31:39.020Z,3.87
2022-09-10T16:34:09.305Z,3.70
2022-09-10T16:36:38.277Z,4.77
2022-09-10T16:39:12.107Z,4.93
2022-09-10T16:41:40.994Z,4.50
2022-09-10T16:44:10.966Z,3.40
2022-09-10T16:46:39.497Z,3.43
2022-09-10T16:49:12.399Z,3.57
2022-09-10T16:51:40.732Z,3.07
2022-09-10T16:54:09.015Z,3.67
2022-09-10T16:56:39.574Z,4.07
2022-09-10T16:59:08.768Z,6.23
2022-09-10T17:01:38.278Z,5.07
2022-09-10T17:04:07.097Z,5.97
2022-09-10T17:06:36.742Z,4.30
2022-09-10T17:09:04.753Z,5.70
2022-09-10T17:11:33.521Z,3.43
2022-09-10T17:14:02.458Z,6.47
2022-09-10T17:16:32.592Z,4.97
2022-09-10T17:19:04.408Z,4.83
2022-09-10T17:21:34.470Z,4.17
2022-09-10T17:24:04.101Z,4.67
2022-09-10T17:26:32.869Z,4.90
2022-09-10T17:29:04.596Z,5.03
2022-09-10T17:31:32.450Z,4.73
2022-09-10T17:34:02.139Z,5.20
2022-09-10T17:36:30.662Z,5.17
2022-09-10T17:38:59.112Z,6.13
2022-09-10T17:41:28.601Z,5.97
2022-09-10T17:43:57.151Z,5.43
2022-09-10T17:46:25.247Z,5.27
2022-09-10T17:48:54.439Z,9.00
2022-09-10T17:51:25.314Z,6.43
2022-09-10T17:53:55.137Z,7.00
2022-09-10T17:56:24.384Z,6.53
2022-09-10T17:58:57.079Z,6.00
2022-09-10T18:01:26.696Z,8.07
2022-09-10T18:03:55.582Z,5.97
2022-09-10T18:06:25.416Z,6.33
2022-09-10T18:08:53.589Z,6.13
2022-09-10T18:11:24.154Z,7.03
2022-09-10T18:13:53.412Z,8.80
2022-09-10T18:16:23.785Z,7.90
2022-09-10T18:18:55.415Z,7.20
2022-09-10T18:21:27.021Z,7.13
2022-09-10T18:23:56.763Z,7.83
2022-09-10T18:26:27.046Z,8.23
2022-09-10T18:28:57.251Z,8.07
2022-09-10T18:31:25.955Z,8.33
2022-09-10T18:33:55.640Z,7.53
2022-09-10T18:36:27.012Z,10.57
2022-09-10T18:38:55.179Z,7.87
2022-09-10T18:41:25.737Z,10.37
2022-09-10T18:43:55.030Z,10.13
2022-09-10T18:46:23.562Z,10.57
2022-09-10T18:48:52.085Z,9.33
2022-09-10T18:51:22.037Z,11.17
2022-09-10T18:53:54.223Z,9.73
2022-09-10T18:56:24.131Z,10.00
2022-09-10T18:58:53.749Z,9.57
2022-09-10T19:01:21.888Z,9.70
2022-09-10T19:03:50.295Z,9.73
2022-09-10T19:06:20.583Z,11.23
2022-09-10T19:08:49.546Z,9.47
2022-09-10T19:11:18.995Z,9.13
2022-09-10T19:13:50.554Z,10.63
2022-09-10T19:16:19.039Z,10.70
2022-09-10T19:18:50.917Z,10.17
2022-09-10T19:21:20.071Z,10.87
2022-09-10T19:23:49.451Z,10.50
2022-09-10T19:26:19.718Z,10.13
2022-09-10T19:28:47.918Z,11.87
2022-09-10T19:31:17.832Z,11.67
2022-09-10T19:33:46.050Z,11.80
2022-09-10T19:36:16.378Z,12.40
2022-09-10T19:38:44.239Z,11.50
2022-09-10T19:41:13.665Z,13.07
2022-09-10T19:43:42.877Z,11.17
2022-09-10T19:46:11.479Z,13.60
2022-09-10T19:48:39.903Z,12.77
2022-09-10T19:51:09.818Z,9.47
2022-09-10T19:53:37.980Z,13.30
2022-09-10T19:56:07.103Z,13.27
2022-09-10T19:58:35.973Z,9.17
2022-09-10T20:01:09.846Z,12.10
2022-09-10T20:03:39.813Z,11.80
2022-09-10T20:06:11.225Z,11.67
2022-09-10T20:08:40.279Z,12.27
2022-09-10T20:11:09.581Z,12.03
2022-09-10T20:13:37.926Z,13.97
2022-09-10T20:16:08.373Z,14.43
2022-09-10T20:18:38.844Z,12.70
2022-09-10T20:21:11.910Z,14.20
2022-09-10T20:23:40.020Z,12.93
2022-09-10T20:26:13.185Z,14.20
2022-09-10T20:28:41.369Z,14.67
2022-09-10T20:31:10.946Z,15.10
2022-09-10T20:33:42.255Z,13.87
2022-09-10T20:36:12.223Z,15.30
2022-09-10T20:38:40.521Z,17.23
2022-09-10T20:41:08.827Z,16.03
2022-09-10T20:43:37.468Z,16.77
2022-09-10T20:46:06.437Z,18.53
2022-09-10T20:48:34.477Z,17.80
2022-09-10T20:51:03.677Z,18.63
2022-09-10T20:53:36.300Z,16.53
2022-09-10T20:56:06.569Z,17.37
2022-09-10T20:58:36.805Z,18.73
2022-09-10T21:01:09.606Z,16.73
2022-09-10T21:03:37.607Z,16.30
2022-09-10T21:06:07.407Z,17.50
2022-09-10T21:08:35.829Z,17.50
2022-09-10T21:11:04.869Z,15.83
2022-09-10T21:13:34.192Z,17.40
2022-09-10T21:16:10.380Z,16.67
2022-09-10T21:18:38.368Z,17.23
2022-09-10T21:21:08.691Z,17.83
2022-09-10T21:23:37.620Z,18.07
2022-09-10T21:26:05.975Z,18.93
2022-09-10T21:28:35.361Z,18.27
2022-09-10T21:31:04.983Z,18.40
2022-09-10T21:33:33.319Z,17.27
2022-09-10T21:36:02.528Z,17.20
2022-09-10T21:38:31.819Z,17.37
2022-09-10T21:41:00.015Z,25.70
2022-09-10T21:43:28.598Z,32.30
2022-09-10T21:45:56.427Z,25.43
2022-09-10T21:48:24.398Z,21.17
2022-09-10T21:50:59.033Z,19.30
2022-09-10T21:53:27.248Z,18.43
2022-09-10T21:55:57.278Z,17.93
2022-09-10T21:58:27.849Z,20.80
2022-09-10T22:00:58.190Z,19.83
2022-09-10T22:03:26.259Z,18.43
2022-09-10T22:05:54.069Z,17.00
2022-09-10T22:08:22.386Z,18.93
2022-09-10T22:10:51.371Z,17.90
2022-09-10T22:13:22.083Z,17.03
2022-09-10T22:15:52.227Z,18.93
2022-09-10T22:18:20.585Z,18.70
2022-09-10T22:20:48.377Z,19.80
2022-09-10T22:23:16.219Z,18.33
2022-09-10T22:25:44.057Z,17.73
2022-09-10T22:28:12.130Z,19.03
2022-09-10T22:30:42.302Z,20.00
2022-09-10T22:33:11.183Z,16.23
2022-09-10T22:35:39.402Z,19.17
2022-09-10T22:38:07.239Z,18.40
2022-09-10T22:40:35.087Z,18.93
2022-09-10T22:43:03.391Z,19.63
2022-09-10T22:45:32.355Z,19.33
2022-09-10T22:48:01.524Z,19.27
2022-09-10T22:50:29.375Z,18.20
2022-09-10T22:52:57.201Z,18.10
2022-09-10T22:55:25.031Z,18.13
2022-09-10T22:57:53.754Z,19.17
2022-09-10T23:00:22.146Z,19.50
2022-09-10T23:02:49.929Z,17.90
2022-09-10T23:05:19.391Z,16.50
2022-09-10T23:07:49.972Z,17.60
2022-09-10T23:10:18.083Z,17.70
2022-09-10T23:12:45.955Z,16.67
2022-09-10T23:15:13.853Z,17.23
2022-09-10T23:17:41.733Z,15.80
2022-09-10T23:20:12.204Z,15.57
2022-09-10T23:22:41.361Z,15.77
2022-09-10T23:25:10.113Z,16.80
2022-09-10T23:27:38.683Z,18.73
2022-09-10T23:30:07.795Z,17.33
2022-09-10T23:32:35.690Z,18.40
2022-09-10T23:35:08.263Z,17.07
2022-09-10T23:37:36.184Z,17.43
2022-09-10T23:40:06.336Z,16.83
2022-09-10T23:42:35.390Z,17.07
2022-09-10T23:45:03.254Z,16.90
2022-09-10T23:47:31.362Z,17.77
2022-09-10T23:49:59.222Z,18.77
2022-09-10T23:52:27.099Z,19.07
2022-09-10T23:54:55.890Z,18.17
2022-09-10T23:57:25.894Z,18.73
2022-09-10T23:59:53.743Z,16.67
